sensor_id;sensor_type;location;lat;lon;timestamp;P1;durP1;ratioP1;P2;durP2;ratioP2
33094;SDS011;19459;53.044;8.910;2024-03-02T00:00:15;30.67;;;18.13;;
33094;SDS011;19459;53.044;8.910;2024-03-02T00:02:44;25.88;;;16.42;;
33094;SDS011;19459;53.044;8.910;2024-03-02T00:05:12;30.58;;;17.83;;
33094;SDS011;19459;53.044;8.910;2024-03-02T00:07:52;28.00;;;17.55;;
33094;SDS011;19459;53.044;8.910;2024-03-02T00:10:39;26.65;;;17.13;;
33094;SDS011;19459;53.044;8.910;2024-03-02T00:13:08;29.23;;;18.00;;
33094;SDS011;19459;53.044;8.910;2024-03-02T00:15:42;27.00;;;17.75;;
33094;SDS011;19459;53.044;8.910;2024-03-02T00:18:18;27.92;;;18.27;;
33094;SDS011;19459;53.044;8.910;2024-03-02T00:21:05;32.28;;;18.05;;
33094;SDS011;19459;53.044;8.910;2024-03-02T00:23:34;27.92;;;17.98;;
33094;SDS011;19459;53.044;8.910;2024-03-02T00:26:01;27.15;;;17.77;;
33094;SDS011;19459;53.044;8.910;2024-03-02T00:28:34;29.58;;;17.60;;
33094;SDS011;19459;53.044;8.910;2024-03-02T00:31:02;29.27;;;18.25;;
33094;SDS011;19459;53.044;8.910;2024-03-02T00:33:33;28.23;;;17.45;;
33094;SDS011;19459;53.044;8.910;2024-03-02T00:36:09;27.05;;;17.35;;
33094;SDS011;19459;53.044;8.910;2024-03-02T00:38:49;25.13;;;17.92;;
33094;SDS011;19459;53.044;8.910;2024-03-02T00:41:29;26.75;;;17.92;;
33094;SDS011;19459;53.044;8.910;2024-03-02T00:44:03;25.08;;;15.98;;
33094;SDS011;19459;53.044;8.910;2024-03-02T00:46:40;28.83;;;18.05;;
33094;SDS011;19459;53.044;8.910;2024-03-02T00:49:23;28.73;;;18.02;;
33094;SDS011;19459;53.044;8.910;2024-03-02T00:51:52;28.27;;;18.90;;
33094;SDS011;19459;53.044;8.910;2024-03-02T00:54:23;32.67;;;17.63;;
33094;SDS011;19459;53.044;8.910;2024-03-02T00:56:52;29.70;;;17.77;;
33094;SDS011;19459;53.044;8.910;2024-03-02T00:59:21;35.65;;;17.80;;
33094;SDS011;19459;53.044;8.910;2024-03-02T01:01:48;27.52;;;18.45;;
33094;SDS011;19459;53.044;8.910;2024-03-02T01:04:14;26.08;;;17.08;;
33094;SDS011;19459;53.044;8.910;2024-03-02T01:06:42;26.98;;;17.90;;
33094;SDS011;19459;53.044;8.910;2024-03-02T01:09:08;27.48;;;17.88;;
33094;SDS011;19459;53.044;8.910;2024-03-02T01:11:34;26.40;;;17.98;;
33094;SDS011;19459;53.044;8.910;2024-03-02T01:14:00;32.83;;;19.55;;
33094;SDS011;19459;53.044;8.910;2024-03-02T01:16:25;26.25;;;16.75;;
33094;SDS011;19459;53.044;8.910;2024-03-02T01:18:51;25.92;;;17.05;;
33094;SDS011;19459;53.044;8.910;2024-03-02T01:21:17;25.95;;;17.00;;
33094;SDS011;19459;53.044;8.910;2024-03-02T01:23:43;24.70;;;16.70;;
33094;SDS011;19459;53.044;8.910;2024-03-02T01:26:09;27.20;;;17.27;;
33094;SDS011;19459;53.044;8.910;2024-03-02T01:28:34;27.73;;;17.63;;
33094;SDS011;19459;53.044;8.910;2024-03-02T01:31:00;27.92;;;16.75;;
33094;SDS011;19459;53.044;8.910;2024-03-02T01:33:27;31.13;;;18.92;;
33094;SDS011;19459;53.044;8.910;2024-03-02T01:35:53;34.08;;;19.25;;
33094;SDS011;19459;53.044;8.910;2024-03-02T01:38:18;29.65;;;18.30;;
33094;SDS011;19459;53.044;8.910;2024-03-02T01:40:45;29.02;;;18.15;;
33094;SDS011;19459;53.044;8.910;2024-03-02T01:43:11;30.92;;;18.65;;
33094;SDS011;19459;53.044;8.910;2024-03-02T01:45:37;30.73;;;19.08;;
33094;SDS011;19459;53.044;8.910;2024-03-02T01:48:06;25.83;;;17.50;;
33094;SDS011;19459;53.044;8.910;2024-03-02T01:50:32;28.52;;;17.55;;
33094;SDS011;19459;53.044;8.910;2024-03-02T01:52:59;27.67;;;18.33;;
33094;SDS011;19459;53.044;8.910;2024-03-02T01:55:27;28.83;;;17.95;;
33094;SDS011;19459;53.044;8.910;2024-03-02T01:57:55;31.42;;;19.63;;
33094;SDS011;19459;53.044;8.910;2024-03-02T02:00:21;27.58;;;16.58;;
33094;SDS011;19459;53.044;8.910;2024-03-02T02:02:49;25.77;;;17.63;;
33094;SDS011;19459;53.044;8.910;2024-03-02T02:05:15;28.25;;;17.77;;
33094;SDS011;19459;53.044;8.910;2024-03-02T02:07:41;28.00;;;18.30;;
33094;SDS011;19459;53.044;8.910;2024-03-02T02:10:08;34.80;;;20.30;;
33094;SDS011;19459;53.044;8.910;2024-03-02T02:12:35;32.63;;;20.52;;
33094;SDS011;19459;53.044;8.910;2024-03-02T02:15:01;29.80;;;19.08;;
33094;SDS011;19459;53.044;8.910;2024-03-02T02:17:46;28.67;;;18.92;;
33094;SDS011;19459;53.044;8.910;2024-03-02T02:20:12;28.85;;;18.42;;
33094;SDS011;19459;53.044;8.910;2024-03-02T02:22:38;32.03;;;20.35;;
33094;SDS011;19459;53.044;8.910;2024-03-02T02:25:04;33.13;;;20.90;;
33094;SDS011;19459;53.044;8.910;2024-03-02T02:27:31;26.73;;;18.67;;
33094;SDS011;19459;53.044;8.910;2024-03-02T02:29:56;31.50;;;20.15;;
33094;SDS011;19459;53.044;8.910;2024-03-02T02:32:22;30.13;;;19.15;;
33094;SDS011;19459;53.044;8.910;2024-03-02T02:34:52;31.95;;;20.08;;
33094;SDS011;19459;53.044;8.910;2024-03-02T02:37:18;32.28;;;20.85;;
33094;SDS011;19459;53.044;8.910;2024-03-02T02:39:43;34.30;;;20.52;;
33094;SDS011;19459;53.044;8.910;2024-03-02T02:42:11;34.95;;;21.27;;
33094;SDS011;19459;53.044;8.910;2024-03-02T02:44:37;28.77;;;19.50;;
33094;SDS011;19459;53.044;8.910;2024-03-02T02:47:03;35.17;;;21.27;;
33094;SDS011;19459;53.044;8.910;2024-03-02T02:49:29;33.67;;;21.15;;
33094;SDS011;19459;53.044;8.910;2024-03-02T02:51:54;34.30;;;20.33;;
33094;SDS011;19459;53.044;8.910;2024-03-02T02:54:20;33.60;;;19.73;;
33094;SDS011;19459;53.044;8.910;2024-03-02T02:56:46;37.03;;;22.17;;
33094;SDS011;19459;53.044;8.910;2024-03-02T02:59:11;36.78;;;22.38;;
33094;SDS011;19459;53.044;8.910;2024-03-02T03:01:37;36.80;;;21.90;;
33094;SDS011;19459;53.044;8.910;2024-03-02T03:04:03;33.88;;;21.27;;
33094;SDS011;19459;53.044;8.910;2024-03-02T03:06:29;31.85;;;20.30;;
33094;SDS011;19459;53.044;8.910;2024-03-02T03:08:54;32.67;;;20.88;;
33094;SDS011;19459;53.044;8.910;2024-03-02T03:11:20;38.30;;;22.35;;
33094;SDS011;19459;53.044;8.910;2024-03-02T03:13:47;33.45;;;22.05;;
33094;SDS011;19459;53.044;8.910;2024-03-02T03:16:13;31.05;;;20.48;;
33094;SDS011;19459;53.044;8.910;2024-03-02T03:18:39;35.20;;;21.73;;
33094;SDS011;19459;53.044;8.910;2024-03-02T03:21:05;33.35;;;21.67;;
33094;SDS011;19459;53.044;8.910;2024-03-02T03:23:30;33.60;;;20.92;;
33094;SDS011;19459;53.044;8.910;2024-03-02T03:25:56;37.60;;;22.88;;
33094;SDS011;19459;53.044;8.910;2024-03-02T03:28:22;35.60;;;22.10;;
33094;SDS011;19459;53.044;8.910;2024-03-02T03:30:48;33.50;;;20.80;;
33094;SDS011;19459;53.044;8.910;2024-03-02T03:33:14;34.25;;;21.50;;
33094;SDS011;19459;53.044;8.910;2024-03-02T03:35:39;35.55;;;22.67;;
33094;SDS011;19459;53.044;8.910;2024-03-02T03:38:05;33.40;;;22.10;;
33094;SDS011;19459;53.044;8.910;2024-03-02T03:40:31;33.33;;;20.80;;
33094;SDS011;19459;53.044;8.910;2024-03-02T03:42:57;35.75;;;21.95;;
33094;SDS011;19459;53.044;8.910;2024-03-02T03:45:24;33.60;;;20.50;;
33094;SDS011;19459;53.044;8.910;2024-03-02T03:47:51;31.23;;;20.67;;
33094;SDS011;19459;53.044;8.910;2024-03-02T03:50:18;31.17;;;20.83;;
33094;SDS011;19459;53.044;8.910;2024-03-02T03:52:44;33.72;;;20.70;;
33094;SDS011;19459;53.044;8.910;2024-03-02T03:55:10;31.85;;;20.23;;
33094;SDS011;19459;53.044;8.910;2024-03-02T03:57:36;35.03;;;21.40;;
33094;SDS011;19459;53.044;8.910;2024-03-02T04:00:02;34.45;;;21.95;;
33094;SDS011;19459;53.044;8.910;2024-03-02T04:02:29;33.33;;;20.13;;
33094;SDS011;19459;53.044;8.910;2024-03-02T04:04:54;30.25;;;19.80;;
33094;SDS011;19459;53.044;8.910;2024-03-02T04:07:20;27.35;;;18.42;;
33094;SDS011;19459;53.044;8.910;2024-03-02T04:09:46;29.55;;;19.40;;
33094;SDS011;19459;53.044;8.910;2024-03-02T04:12:12;31.55;;;20.55;;
33094;SDS011;19459;53.044;8.910;2024-03-02T04:14:38;30.48;;;19.90;;
33094;SDS011;19459;53.044;8.910;2024-03-02T04:17:04;28.92;;;18.98;;
33094;SDS011;19459;53.044;8.910;2024-03-02T04:19:30;33.90;;;20.80;;
33094;SDS011;19459;53.044;8.910;2024-03-02T04:21:55;30.83;;;19.23;;
33094;SDS011;19459;53.044;8.910;2024-03-02T04:24:21;34.95;;;20.65;;
33094;SDS011;19459;53.044;8.910;2024-03-02T04:26:47;29.67;;;18.23;;
33094;SDS011;19459;53.044;8.910;2024-03-02T04:29:12;27.67;;;17.95;;
33094;SDS011;19459;53.044;8.910;2024-03-02T04:31:38;26.80;;;17.80;;
33094;SDS011;19459;53.044;8.910;2024-03-02T04:34:04;30.77;;;19.48;;
33094;SDS011;19459;53.044;8.910;2024-03-02T04:36:30;32.78;;;18.30;;
33094;SDS011;19459;53.044;8.910;2024-03-02T04:38:55;31.98;;;20.00;;
33094;SDS011;19459;53.044;8.910;2024-03-02T04:41:21;28.58;;;17.80;;
33094;SDS011;19459;53.044;8.910;2024-03-02T04:43:47;26.35;;;17.48;;
33094;SDS011;19459;53.044;8.910;2024-03-02T04:46:13;24.00;;;16.90;;
33094;SDS011;19459;53.044;8.910;2024-03-02T04:48:39;26.30;;;17.58;;
33094;SDS011;19459;53.044;8.910;2024-03-02T04:51:04;29.33;;;19.08;;
33094;SDS011;19459;53.044;8.910;2024-03-02T04:53:30;29.17;;;17.90;;
33094;SDS011;19459;53.044;8.910;2024-03-02T04:55:56;28.27;;;17.95;;
33094;SDS011;19459;53.044;8.910;2024-03-02T04:58:40;26.73;;;17.00;;
33094;SDS011;19459;53.044;8.910;2024-03-02T05:01:06;27.50;;;18.50;;
33094;SDS011;19459;53.044;8.910;2024-03-02T05:03:32;26.23;;;17.88;;
33094;SDS011;19459;53.044;8.910;2024-03-02T05:05:59;26.15;;;17.05;;
33094;SDS011;19459;53.044;8.910;2024-03-02T05:08:25;26.85;;;16.67;;
33094;SDS011;19459;53.044;8.910;2024-03-02T05:10:51;27.17;;;17.20;;
33094;SDS011;19459;53.044;8.910;2024-03-02T05:13:17;25.63;;;16.63;;
33094;SDS011;19459;53.044;8.910;2024-03-02T05:15:43;27.63;;;16.95;;
33094;SDS011;19459;53.044;8.910;2024-03-02T05:18:08;26.73;;;17.45;;
33094;SDS011;19459;53.044;8.910;2024-03-02T05:20:34;29.52;;;17.83;;
33094;SDS011;19459;53.044;8.910;2024-03-02T05:23:00;25.10;;;17.20;;
33094;SDS011;19459;53.044;8.910;2024-03-02T05:25:26;28.70;;;18.20;;
33094;SDS011;19459;53.044;8.910;2024-03-02T05:27:51;26.95;;;16.48;;
33094;SDS011;19459;53.044;8.910;2024-03-02T05:30:17;26.83;;;17.77;;
33094;SDS011;19459;53.044;8.910;2024-03-02T05:32:43;25.42;;;16.85;;
33094;SDS011;19459;53.044;8.910;2024-03-02T05:35:08;24.98;;;16.38;;
33094;SDS011;19459;53.044;8.910;2024-03-02T05:37:36;24.83;;;16.70;;
33094;SDS011;19459;53.044;8.910;2024-03-02T05:40:02;27.30;;;17.40;;
33094;SDS011;19459;53.044;8.910;2024-03-02T05:42:28;23.48;;;16.70;;
33094;SDS011;19459;53.044;8.910;2024-03-02T05:44:54;28.10;;;16.73;;
33094;SDS011;19459;53.044;8.910;2024-03-02T05:47:19;30.83;;;18.02;;
33094;SDS011;19459;53.044;8.910;2024-03-02T05:49:45;28.60;;;17.48;;
33094;SDS011;19459;53.044;8.910;2024-03-02T05:52:11;24.52;;;16.67;;
33094;SDS011;19459;53.044;8.910;2024-03-02T05:54:37;26.38;;;17.58;;
33094;SDS011;19459;53.044;8.910;2024-03-02T05:57:03;28.77;;;16.85;;
33094;SDS011;19459;53.044;8.910;2024-03-02T05:59:42;28.75;;;18.40;;
33094;SDS011;19459;53.044;8.910;2024-03-02T06:02:08;29.80;;;17.60;;
33094;SDS011;19459;53.044;8.910;2024-03-02T06:04:34;27.77;;;19.15;;
33094;SDS011;19459;53.044;8.910;2024-03-02T06:07:00;30.33;;;18.63;;
33094;SDS011;19459;53.044;8.910;2024-03-02T06:09:26;30.38;;;19.25;;
33094;SDS011;19459;53.044;8.910;2024-03-02T06:11:51;28.77;;;18.58;;
33094;SDS011;19459;53.044;8.910;2024-03-02T06:14:17;27.58;;;17.85;;
33094;SDS011;19459;53.044;8.910;2024-03-02T06:16:43;29.08;;;17.27;;
33094;SDS011;19459;53.044;8.910;2024-03-02T06:19:12;29.30;;;18.85;;
33094;SDS011;19459;53.044;8.910;2024-03-02T06:21:37;29.77;;;19.60;;
33094;SDS011;19459;53.044;8.910;2024-03-02T06:24:04;31.83;;;19.02;;
33094;SDS011;19459;53.044;8.910;2024-03-02T06:26:30;31.48;;;18.98;;
33094;SDS011;19459;53.044;8.910;2024-03-02T06:28:56;34.95;;;20.38;;
33094;SDS011;19459;53.044;8.910;2024-03-02T06:31:22;28.65;;;18.05;;
33094;SDS011;19459;53.044;8.910;2024-03-02T06:33:48;32.40;;;20.00;;
33094;SDS011;19459;53.044;8.910;2024-03-02T06:36:14;29.70;;;19.70;;
33094;SDS011;19459;53.044;8.910;2024-03-02T06:38:40;30.77;;;20.35;;
33094;SDS011;19459;53.044;8.910;2024-03-02T06:41:06;34.08;;;20.25;;
33094;SDS011;19459;53.044;8.910;2024-03-02T06:43:32;37.42;;;20.50;;
33094;SDS011;19459;53.044;8.910;2024-03-02T06:45:58;29.63;;;19.77;;
33094;SDS011;19459;53.044;8.910;2024-03-02T06:48:24;31.55;;;20.90;;
33094;SDS011;19459;53.044;8.910;2024-03-02T06:50:50;31.10;;;19.58;;
33094;SDS011;19459;53.044;8.910;2024-03-02T06:53:17;31.02;;;19.08;;
33094;SDS011;19459;53.044;8.910;2024-03-02T06:55:46;33.13;;;19.50;;
33094;SDS011;19459;53.044;8.910;2024-03-02T06:58:14;29.88;;;19.23;;
33094;SDS011;19459;53.044;8.910;2024-03-02T07:00:43;32.72;;;20.25;;
33094;SDS011;19459;53.044;8.910;2024-03-02T07:03:09;33.60;;;20.23;;
33094;SDS011;19459;53.044;8.910;2024-03-02T07:05:35;29.60;;;19.02;;
33094;SDS011;19459;53.044;8.910;2024-03-02T07:08:01;31.98;;;20.02;;
33094;SDS011;19459;53.044;8.910;2024-03-02T07:10:28;29.17;;;18.88;;
33094;SDS011;19459;53.044;8.910;2024-03-02T07:12:54;30.55;;;19.85;;
33094;SDS011;19459;53.044;8.910;2024-03-02T07:15:19;28.95;;;19.55;;
33094;SDS011;19459;53.044;8.910;2024-03-02T07:18:04;27.90;;;18.30;;
33094;SDS011;19459;53.044;8.910;2024-03-02T07:20:29;29.75;;;19.52;;
33094;SDS011;19459;53.044;8.910;2024-03-02T07:22:55;33.80;;;19.60;;
33094;SDS011;19459;53.044;8.910;2024-03-02T07:25:21;30.05;;;19.33;;
33094;SDS011;19459;53.044;8.910;2024-03-02T07:27:47;34.33;;;21.13;;
33094;SDS011;19459;53.044;8.910;2024-03-02T07:30:16;28.42;;;19.35;;
33094;SDS011;19459;53.044;8.910;2024-03-02T07:32:42;32.67;;;20.40;;
33094;SDS011;19459;53.044;8.910;2024-03-02T07:35:11;34.03;;;20.67;;
33094;SDS011;19459;53.044;8.910;2024-03-02T07:37:38;33.05;;;20.65;;
33094;SDS011;19459;53.044;8.910;2024-03-02T07:40:04;38.17;;;21.25;;
33094;SDS011;19459;53.044;8.910;2024-03-02T07:42:34;32.67;;;20.20;;
33094;SDS011;19459;53.044;8.910;2024-03-02T07:45:00;38.72;;;22.00;;
33094;SDS011;19459;53.044;8.910;2024-03-02T07:47:26;34.72;;;20.95;;
33094;SDS011;19459;53.044;8.910;2024-03-02T07:49:51;33.22;;;21.23;;
33094;SDS011;19459;53.044;8.910;2024-03-02T07:52:17;33.17;;;21.05;;
33094;SDS011;19459;53.044;8.910;2024-03-02T07:54:43;36.00;;;19.55;;
33094;SDS011;19459;53.044;8.910;2024-03-02T07:57:09;29.73;;;19.98;;
33094;SDS011;19459;53.044;8.910;2024-03-02T07:59:35;34.65;;;19.95;;
33094;SDS011;19459;53.044;8.910;2024-03-02T08:02:02;30.88;;;19.67;;
33094;SDS011;19459;53.044;8.910;2024-03-02T08:04:28;29.17;;;19.60;;
33094;SDS011;19459;53.044;8.910;2024-03-02T08:06:54;31.90;;;20.10;;
33094;SDS011;19459;53.044;8.910;2024-03-02T08:09:19;39.70;;;20.40;;
33094;SDS011;19459;53.044;8.910;2024-03-02T08:11:45;29.27;;;18.85;;
33094;SDS011;19459;53.044;8.910;2024-03-02T08:14:11;33.45;;;19.52;;
33094;SDS011;19459;53.044;8.910;2024-03-02T08:16:37;32.80;;;20.15;;
33094;SDS011;19459;53.044;8.910;2024-03-02T08:19:02;34.63;;;20.15;;
33094;SDS011;19459;53.044;8.910;2024-03-02T08:21:28;34.28;;;19.85;;
33094;SDS011;19459;53.044;8.910;2024-03-02T08:23:55;29.38;;;18.40;;
33094;SDS011;19459;53.044;8.910;2024-03-02T08:26:23;34.80;;;21.23;;
33094;SDS011;19459;53.044;8.910;2024-03-02T08:28:49;34.30;;;20.55;;
33094;SDS011;19459;53.044;8.910;2024-03-02T08:31:14;33.05;;;19.63;;
33094;SDS011;19459;53.044;8.910;2024-03-02T08:33:40;35.13;;;21.58;;
33094;SDS011;19459;53.044;8.910;2024-03-02T08:36:06;31.27;;;19.25;;
33094;SDS011;19459;53.044;8.910;2024-03-02T08:38:34;30.95;;;19.20;;
33094;SDS011;19459;53.044;8.910;2024-03-02T08:41:00;32.97;;;20.05;;
33094;SDS011;19459;53.044;8.910;2024-03-02T08:43:26;33.75;;;20.05;;
33094;SDS011;19459;53.044;8.910;2024-03-02T08:45:52;32.17;;;19.38;;
33094;SDS011;19459;53.044;8.910;2024-03-02T08:48:17;31.70;;;19.55;;
33094;SDS011;19459;53.044;8.910;2024-03-02T08:50:44;35.03;;;20.73;;
33094;SDS011;19459;53.044;8.910;2024-03-02T08:53:10;32.72;;;21.23;;
33094;SDS011;19459;53.044;8.910;2024-03-02T08:55:43;31.05;;;20.95;;
33094;SDS011;19459;53.044;8.910;2024-03-02T08:58:11;32.55;;;18.95;;
33094;SDS011;19459;53.044;8.910;2024-03-02T09:00:37;36.65;;;21.05;;
33094;SDS011;19459;53.044;8.910;2024-03-02T09:03:03;34.08;;;19.92;;
33094;SDS011;19459;53.044;8.910;2024-03-02T09:05:29;32.00;;;20.17;;
33094;SDS011;19459;53.044;8.910;2024-03-02T09:07:55;29.77;;;17.83;;
33094;SDS011;19459;53.044;8.910;2024-03-02T09:10:21;32.05;;;19.80;;
33094;SDS011;19459;53.044;8.910;2024-03-02T09:12:46;34.83;;;20.08;;
33094;SDS011;19459;53.044;8.910;2024-03-02T09:15:12;28.77;;;18.20;;
33094;SDS011;19459;53.044;8.910;2024-03-02T09:17:38;32.55;;;18.92;;
33094;SDS011;19459;53.044;8.910;2024-03-02T09:20:05;32.58;;;18.92;;
33094;SDS011;19459;53.044;8.910;2024-03-02T09:22:31;29.23;;;18.67;;
33094;SDS011;19459;53.044;8.910;2024-03-02T09:24:57;28.20;;;17.85;;
33094;SDS011;19459;53.044;8.910;2024-03-02T09:27:23;30.88;;;18.95;;
33094;SDS011;19459;53.044;8.910;2024-03-02T09:29:49;27.15;;;18.58;;
33094;SDS011;19459;53.044;8.910;2024-03-02T09:32:15;25.85;;;17.73;;
33094;SDS011;19459;53.044;8.910;2024-03-02T09:34:41;25.85;;;17.42;;
33094;SDS011;19459;53.044;8.910;2024-03-02T09:37:07;26.98;;;18.15;;
33094;SDS011;19459;53.044;8.910;2024-03-02T09:39:36;26.23;;;16.38;;
33094;SDS011;19459;53.044;8.910;2024-03-02T09:42:02;23.38;;;15.60;;
33094;SDS011;19459;53.044;8.910;2024-03-02T09:44:29;26.52;;;17.08;;
33094;SDS011;19459;53.044;8.910;2024-03-02T09:46:55;24.92;;;15.25;;
33094;SDS011;19459;53.044;8.910;2024-03-02T09:49:21;24.88;;;16.13;;
33094;SDS011;19459;53.044;8.910;2024-03-02T09:51:48;25.25;;;16.67;;
33094;SDS011;19459;53.044;8.910;2024-03-02T09:54:17;23.42;;;16.58;;
33094;SDS011;19459;53.044;8.910;2024-03-02T09:56:43;26.27;;;15.85;;
33094;SDS011;19459;53.044;8.910;2024-03-02T09:59:10;23.08;;;15.45;;
33094;SDS011;19459;53.044;8.910;2024-03-02T10:01:36;28.35;;;16.25;;
33094;SDS011;19459;53.044;8.910;2024-03-02T10:04:01;25.08;;;16.23;;
33094;SDS011;19459;53.044;8.910;2024-03-02T10:06:28;24.52;;;15.43;;
33094;SDS011;19459;53.044;8.910;2024-03-02T10:08:54;24.65;;;15.45;;
33094;SDS011;19459;53.044;8.910;2024-03-02T10:11:30;21.90;;;14.85;;
33094;SDS011;19459;53.044;8.910;2024-03-02T10:14:12;25.52;;;16.58;;
33094;SDS011;19459;53.044;8.910;2024-03-02T10:16:42;24.83;;;15.00;;
33094;SDS011;19459;53.044;8.910;2024-03-02T10:19:17;23.02;;;15.38;;
33094;SDS011;19459;53.044;8.910;2024-03-02T10:21:46;23.52;;;15.55;;
33094;SDS011;19459;53.044;8.910;2024-03-02T10:24:16;22.70;;;16.02;;
33094;SDS011;19459;53.044;8.910;2024-03-02T10:26:46;25.33;;;15.65;;
33094;SDS011;19459;53.044;8.910;2024-03-02T10:29:13;23.55;;;16.35;;
33094;SDS011;19459;53.044;8.910;2024-03-02T10:31:43;24.83;;;15.77;;
33094;SDS011;19459;53.044;8.910;2024-03-02T10:36:43;22.33;;;14.98;;
33094;SDS011;19459;53.044;8.910;2024-03-02T10:39:12;22.73;;;14.80;;
33094;SDS011;19459;53.044;8.910;2024-03-02T10:41:39;23.80;;;15.10;;
33094;SDS011;19459;53.044;8.910;2024-03-02T10:44:06;21.85;;;13.77;;
33094;SDS011;19459;53.044;8.910;2024-03-02T10:46:37;20.48;;;12.93;;
33094;SDS011;19459;53.044;8.910;2024-03-02T10:49:04;20.92;;;14.10;;
33094;SDS011;19459;53.044;8.910;2024-03-02T10:51:32;19.30;;;13.43;;
33094;SDS011;19459;53.044;8.910;2024-03-02T10:54:01;20.80;;;13.48;;
33094;SDS011;19459;53.044;8.910;2024-03-02T10:56:29;18.45;;;12.50;;
33094;SDS011;19459;53.044;8.910;2024-03-02T10:59:42;16.08;;;12.05;;
33094;SDS011;19459;53.044;8.910;2024-03-02T11:02:00;19.08;;;12.95;;
33094;SDS011;19459;53.044;8.910;2024-03-02T11:04:28;36.55;;;15.30;;
33094;SDS011;19459;53.044;8.910;2024-03-02T11:07:04;21.50;;;12.77;;
33094;SDS011;19459;53.044;8.910;2024-03-02T11:09:35;21.70;;;13.90;;
33094;SDS011;19459;53.044;8.910;2024-03-02T11:12:09;20.98;;;13.35;;
33094;SDS011;19459;53.044;8.910;2024-03-02T11:14:44;21.23;;;13.13;;
33094;SDS011;19459;53.044;8.910;2024-03-02T11:17:10;20.50;;;13.32;;
33094;SDS011;19459;53.044;8.910;2024-03-02T11:19:40;18.65;;;12.63;;
33094;SDS011;19459;53.044;8.910;2024-03-02T11:22:06;18.50;;;11.73;;
33094;SDS011;19459;53.044;8.910;2024-03-02T11:24:34;17.15;;;11.45;;
33094;SDS011;19459;53.044;8.910;2024-03-02T11:27:00;18.70;;;12.63;;
33094;SDS011;19459;53.044;8.910;2024-03-02T11:34:42;15.95;;;11.40;;
33094;SDS011;19459;53.044;8.910;2024-03-02T11:37:12;19.67;;;13.00;;
33094;SDS011;19459;53.044;8.910;2024-03-02T11:39:44;17.08;;;10.90;;
33094;SDS011;19459;53.044;8.910;2024-03-02T11:42:15;15.25;;;11.82;;
33094;SDS011;19459;53.044;8.910;2024-03-02T11:44:45;18.98;;;11.35;;
33094;SDS011;19459;53.044;8.910;2024-03-02T11:47:14;15.80;;;11.10;;
33094;SDS011;19459;53.044;8.910;2024-03-02T11:49:43;16.02;;;10.25;;
33094;SDS011;19459;53.044;8.910;2024-03-02T11:52:14;14.93;;;10.43;;
33094;SDS011;19459;53.044;8.910;2024-03-02T11:54:43;15.27;;;8.63;;
33094;SDS011;19459;53.044;8.910;2024-03-02T11:57:12;17.63;;;9.68;;
33094;SDS011;19459;53.044;8.910;2024-03-02T11:59:45;14.27;;;8.95;;
33094;SDS011;19459;53.044;8.910;2024-03-02T12:02:18;13.50;;;8.27;;
33094;SDS011;19459;53.044;8.910;2024-03-02T12:04:46;16.20;;;9.30;;
33094;SDS011;19459;53.044;8.910;2024-03-02T12:07:23;12.88;;;8.45;;
33094;SDS011;19459;53.044;8.910;2024-03-02T12:09:49;12.07;;;8.20;;
33094;SDS011;19459;53.044;8.910;2024-03-02T12:12:26;11.68;;;7.55;;
33094;SDS011;19459;53.044;8.910;2024-03-02T12:14:52;12.68;;;7.53;;
33094;SDS011;19459;53.044;8.910;2024-03-02T12:17:20;14.00;;;9.10;;
33094;SDS011;19459;53.044;8.910;2024-03-02T12:19:47;11.85;;;8.77;;
33094;SDS011;19459;53.044;8.910;2024-03-02T12:22:13;10.40;;;6.82;;
33094;SDS011;19459;53.044;8.910;2024-03-02T12:24:40;12.68;;;7.40;;
33094;SDS011;19459;53.044;8.910;2024-03-02T12:27:07;11.45;;;6.50;;
33094;SDS011;19459;53.044;8.910;2024-03-02T12:29:33;11.05;;;7.57;;
33094;SDS011;19459;53.044;8.910;2024-03-02T12:31:59;9.43;;;6.57;;
33094;SDS011;19459;53.044;8.910;2024-03-02T12:34:27;8.77;;;6.05;;
33094;SDS011;19459;53.044;8.910;2024-03-02T12:36:53;11.23;;;7.75;;
33094;SDS011;19459;53.044;8.910;2024-03-02T12:39:19;11.27;;;7.78;;
33094;SDS011;19459;53.044;8.910;2024-03-02T12:41:54;13.30;;;9.00;;
33094;SDS011;19459;53.044;8.910;2024-03-02T12:44:20;13.48;;;7.68;;
33094;SDS011;19459;53.044;8.910;2024-03-02T12:46:49;13.60;;;10.20;;
33094;SDS011;19459;53.044;8.910;2024-03-02T12:49:15;13.50;;;8.07;;
33094;SDS011;19459;53.044;8.910;2024-03-02T12:51:41;11.82;;;8.13;;
33094;SDS011;19459;53.044;8.910;2024-03-02T12:54:08;12.95;;;7.85;;
33094;SDS011;19459;53.044;8.910;2024-03-02T12:56:36;10.13;;;7.70;;
33094;SDS011;19459;53.044;8.910;2024-03-02T12:59:10;12.40;;;8.10;;
33094;SDS011;19459;53.044;8.910;2024-03-02T13:01:52;10.02;;;7.45;;
33094;SDS011;19459;53.044;8.910;2024-03-02T13:04:23;10.48;;;7.63;;
33094;SDS011;19459;53.044;8.910;2024-03-02T13:06:51;9.55;;;6.88;;
33094;SDS011;19459;53.044;8.910;2024-03-02T13:09:18;11.65;;;7.15;;
33094;SDS011;19459;53.044;8.910;2024-03-02T13:11:44;10.93;;;7.55;;
33094;SDS011;19459;53.044;8.910;2024-03-02T13:14:10;10.88;;;7.30;;
33094;SDS011;19459;53.044;8.910;2024-03-02T13:16:39;11.00;;;7.45;;
33094;SDS011;19459;53.044;8.910;2024-03-02T13:19:10;8.35;;;7.05;;
33094;SDS011;19459;53.044;8.910;2024-03-02T13:21:37;10.30;;;7.03;;
33094;SDS011;19459;53.044;8.910;2024-03-02T13:24:03;8.80;;;6.70;;
33094;SDS011;19459;53.044;8.910;2024-03-02T13:26:30;10.70;;;7.85;;
33094;SDS011;19459;53.044;8.910;2024-03-02T13:28:59;11.68;;;7.13;;
33094;SDS011;19459;53.044;8.910;2024-03-02T13:31:24;9.60;;;6.93;;
33094;SDS011;19459;53.044;8.910;2024-03-02T13:33:50;9.43;;;7.00;;
33094;SDS011;19459;53.044;8.910;2024-03-02T13:36:16;13.70;;;8.73;;
33094;SDS011;19459;53.044;8.910;2024-03-02T13:38:42;12.35;;;7.65;;
33094;SDS011;19459;53.044;8.910;2024-03-02T13:41:08;9.38;;;6.75;;
33094;SDS011;19459;53.044;8.910;2024-03-02T13:43:33;10.13;;;6.97;;
33094;SDS011;19459;53.044;8.910;2024-03-02T13:46:01;8.65;;;6.35;;
33094;SDS011;19459;53.044;8.910;2024-03-02T13:48:27;9.00;;;5.97;;
33094;SDS011;19459;53.044;8.910;2024-03-02T13:50:53;8.88;;;5.55;;
33094;SDS011;19459;53.044;8.910;2024-03-02T13:53:19;11.38;;;6.63;;
33094;SDS011;19459;53.044;8.910;2024-03-02T13:55:48;11.82;;;6.88;;
33094;SDS011;19459;53.044;8.910;2024-03-02T13:58:14;9.13;;;5.63;;
33094;SDS011;19459;53.044;8.910;2024-03-02T14:00:40;7.80;;;5.32;;
33094;SDS011;19459;53.044;8.910;2024-03-02T14:03:06;5.88;;;4.78;;
33094;SDS011;19459;53.044;8.910;2024-03-02T14:05:32;6.47;;;4.80;;
33094;SDS011;19459;53.044;8.910;2024-03-02T14:07:58;8.40;;;5.45;;
33094;SDS011;19459;53.044;8.910;2024-03-02T14:10:27;7.38;;;4.68;;
33094;SDS011;19459;53.044;8.910;2024-03-02T14:12:53;6.68;;;4.80;;
33094;SDS011;19459;53.044;8.910;2024-03-02T14:15:20;9.55;;;5.97;;
33094;SDS011;19459;53.044;8.910;2024-03-02T14:17:47;6.75;;;5.03;;
33094;SDS011;19459;53.044;8.910;2024-03-02T14:20:13;9.23;;;5.75;;
33094;SDS011;19459;53.044;8.910;2024-03-02T14:22:39;7.80;;;5.03;;
33094;SDS011;19459;53.044;8.910;2024-03-02T14:25:05;9.18;;;4.80;;
33094;SDS011;19459;53.044;8.910;2024-03-02T14:27:31;6.28;;;4.80;;
33094;SDS011;19459;53.044;8.910;2024-03-02T14:29:57;6.75;;;4.75;;
33094;SDS011;19459;53.044;8.910;2024-03-02T14:32:23;7.88;;;4.80;;
33094;SDS011;19459;53.044;8.910;2024-03-02T14:34:49;8.10;;;5.25;;